Flight Track Log - Related Links

Times and Time Zones

All times are in EDT time to prevent confusion due to time zone crossing. See the KFS28 flight status page for this flight to view local times or setup timezone preferences in your user account.

Time Position Orientation Groundspeed Altitude Reporting Facility
EDT Latitude Longitude Course Direction KTS MPH feet Rate Location/Type
Tue 01:28:01 PM 42.2947 -88.9719 51° Northeast 253 291 7,600  Level Chicago Center
Tue 01:29:03 PM 42.2964 -88.8647 89° East 281 323 9,200 2,613 Climbing Chicago Center
Tue 01:30:05 PM 42.2994 -88.7431 88° East 296 341 13,000 3,242 Climbing Chicago Center
Tue 01:31:07 PM 42.3242 -88.6272 74° East 317 365 15,900 2,419 Climbing Chicago Center
Tue 01:32:00 PM 42.5535 -88.5123 43° Northeast  Level FlightAware Approximate
Tue 01:32:09 PM 42.3450 -88.4967 78° East 324 373 18,000  Level Chicago Center
Tue 01:33:11 PM 42.3617 -88.3644 80° East 346 398 20,100 2,274 Climbing Chicago Center
Tue 01:34:13 PM 42.3858 -88.2344 76° East 354 407 22,700 2,081 Climbing Chicago Center
Tue 01:35:15 PM 42.4119 -88.0842 77° East 354 407 24,400 1,104 Climbing Chicago Center
Tue 01:36:18 PM 42.4353 -87.9461 77° East 372 428 25,000 288 Climbing Chicago Center
Tue 01:37:20 PM 42.4567 -87.7925 79° East 408 470 25,000  Level Chicago Center
Tue 01:38:22 PM 42.4794 -87.6497 78° East 413 475 25,000  Level Chicago Center
Tue 01:39:24 PM 42.5103 -87.4681 77° East 413 475 25,000  Level Chicago Center
Tue 01:40:26 PM 42.5331 -87.3133 79° East 417 480 25,000  Level Chicago Center
Tue 01:41:28 PM 42.5575 -87.1614 78° East 414 476 25,000  Level Chicago Center
Tue 01:42:30 PM 42.5803 -86.9975 79° East 416 479 25,000  Level Chicago Center
Tue 01:43:32 PM 42.6056 -86.8450 77° East 418 481 25,000  Level Chicago Center
Tue 01:44:34 PM 42.6272 -86.6906 79° East 417 480 25,000  Level Chicago Center
Tue 01:45:36 PM 42.6517 -86.5367 78° East 420 483 25,000  Level Chicago Center
Tue 01:46:38 PM 42.6636 -86.3828 84° East 415 478 25,000  Level Chicago Center
Tue 01:47:40 PM 42.6675 -86.1978 88° East 413 475 25,000  Level Chicago Center
Tue 01:48:42 PM 42.6750 -86.0456 86° East 410 472 25,000  Level Chicago Center
Tue 01:49:44 PM 42.6803 -85.8936 87° East 409 471 25,000  Level Chicago Center
Tue 01:50:46 PM 42.6856 -85.7425 87° East 404 465 25,000  Level Chicago Center
Tue 01:51:49 PM 42.6933 -85.5608 87° East 405 466 25,000 -672 Level Chicago Center
Tue 01:52:51 PM 42.6986 -85.4103 87° East 404 465 23,600 -1,694 Descending Chicago Center
Tue 01:53:53 PM 42.7036 -85.2600 87° East 402 463 21,500 -1,258 Descending Chicago Center
Tue 01:54:55 PM 42.7078 -85.1147 88° East 393 452 21,000 -242 Descending Chicago Center
Tue 01:55:57 PM 42.7153 -84.9761 86° East 375 432 21,000 -387 Level Chicago Center
Tue 01:56:59 PM 42.7181 -84.8394 88° East 366 421 20,200 -1,403 Descending Chicago Center
Tue 01:58:01 PM 42.7233 -84.6694 88° East 374 430 18,100 -1,678 Descending Chicago Center
Tue 01:58:57 PM 42.7169 -84.5542 94° East 365 420 16,900 -1,552 Descending Cleveland Center
Tue 01:59:57 PM 42.7153 -84.4211 91° East 365 420 15,100 -1,835 Descending Cleveland Center
Tue 02:00:22 PM 42.7150 -84.3589 90° East 349 402 14,300 -1,800 Descending Cleveland Center
Tue 02:00:57 PM 42.7136 -84.2797 91° East 345 397 13,300 -1,958 Descending Cleveland Center
Tue 02:01:57 PM 42.7111 -84.1608 92° East 334 384 11,200 -1,850 Descending Cleveland Center
Tue 02:02:57 PM 42.7139 -84.0675 88° East 292 336 9,600 -1,333 Descending Cleveland Center
Tue 02:04:03 PM 42.6686 -83.9747 124° Southeast 258 297 8,400 -1,300 Descending Cleveland Center
Tue 02:04:57 PM 42.6139 -83.9239 146° Southeast 241 277 7,000 -1,632 Descending Cleveland Center
Tue 02:05:57 PM 42.5464 -83.8808 155° Southeast 260 299 5,300 -1,000 Descending Cleveland Center
Tue 02:06:57 PM 42.4778 -83.8714 174° South 255 293 5,000 -613 Descending Cleveland Center
Tue 02:08:14 PM 42.3947 -83.8589 174° South 237 273 3,900 -435 Descending Cleveland Center
Tue 02:09:15 PM 42.3394 -83.8250 156° South 210 242 4,000 49 Climbing Cleveland Center
Tue 02:10:16 PM 42.2842 -83.7914 156° South 213 245 4,000 -293 Level Cleveland Center
Tue 02:11:18 PM 42.2286 -83.7575 156° South 222 255 3,400 -564 Descending Cleveland Center
Tue 02:12:13 PM 42.1883 -83.7108 139° Southeast 203 234 2,900 -621 Descending Cleveland Center
Tue 02:13:14 PM 42.1906 -83.6325 88° East 201 231 2,200 -639 Descending Cleveland Center
Tue 02:14:15 PM 42.2042 -83.5825 70° East 123 142 1,600 -590 Descending Cleveland Center

Login

Don't have an account? Register now (free) for customized features, flight alerts, and more!